Time;durP1;ratioP1;P1;durP2;ratioP2;P2;SDS_P1;SDS_P2;PMS_P1;PMS_P2;Temp;Humidity;BMP_temperature;BMP_pressure;BME280_temperature;BME280_humidity;BME280_pressure;Samples;Min_cycle;Max_cycle;Signal;HPM_P1;HPM_P2
2024/01/18 00:01:04;;;;;;;9.18;3.38;;;10.70;55.10;;;;;;5043088;28;20102;-61
2024/01/18 00:03:32;;;;;;;7.93;3.35;;;10.80;55.10;;;;;;5049011;28;20086;-59
2024/01/18 00:06:00;;;;;;;3.20;1.88;;;10.90;55.00;;;;;;5067819;28;20056;-60
2024/01/18 00:08:29;;;;;;;4.80;2.40;;;10.90;54.90;;;;;;5038571;28;20419;-61
2024/01/18 00:10:57;;;;;;;3.83;1.98;;;10.90;54.90;;;;;;5046865;28;20109;-62
2024/01/18 00:13:27;;;;;;;6.82;2.50;;;10.80;54.80;;;;;;5036294;28;20671;-62
2024/01/18 00:15:56;;;;;;;54.05;13.25;;;10.80;55.00;;;;;;5045962;28;20072;-62
2024/01/18 00:18:24;;;;;;;5.93;2.38;;;10.80;55.10;;;;;;5031779;28;20668;-61
2024/01/18 00:20:53;;;;;;;2.67;2.10;;;10.80;55.00;;;;;;5046942;28;20064;-62
2024/01/18 00:23:21;;;;;;;10.50;3.38;;;10.80;55.10;;;;;;5054133;28;20133;-62
2024/01/18 00:25:50;;;;;;;10.55;2.63;;;10.80;55.10;;;;;;5040048;28;20510;-62
2024/01/18 00:28:19;;;;;;;5.18;2.63;;;10.70;54.90;;;;;;5035915;28;20089;-61
2024/01/18 00:30:48;;;;;;;4.60;2.20;;;10.60;55.10;;;;;;5036828;28;20060;-62
2024/01/18 00:33:17;;;;;;;28.20;8.73;;;10.40;55.40;;;;;;5056129;28;20053;-59
2024/01/18 00:35:45;;;;;;;8.77;3.55;;;10.50;55.60;;;;;;5051817;28;20132;-59
2024/01/18 00:38:15;;;;;;;4.35;2.88;;;10.50;55.60;;;;;;5039786;28;20131;-62
2024/01/18 00:40:44;;;;;;;6.55;2.80;;;10.40;55.60;;;;;;5035313;28;20050;-61
2024/01/18 00:43:13;;;;;;;3.85;2.58;;;10.30;55.70;;;;;;5054770;28;20068;-62
2024/01/18 00:45:41;;;;;;;9.73;3.17;;;10.30;55.80;;;;;;5037857;28;20056;-61
2024/01/18 00:48:11;;;;;;;10.38;4.03;;;10.30;55.80;;;;;;5035101;28;20556;-61
2024/01/18 00:50:40;;;;;;;4.78;2.78;;;10.20;55.90;;;;;;5034622;28;20118;-59
2024/01/18 00:53:08;;;;;;;6.60;3.17;;;10.20;55.90;;;;;;5044400;28;20065;-61
2024/01/18 00:55:37;;;;;;;4.07;1.95;;;10.20;56.60;;;;;;5057239;28;20068;-60
2024/01/18 00:58:05;;;;;;;4.88;2.97;;;10.20;56.10;;;;;;5036710;28;20064;-61
2024/01/18 01:00:33;;;;;;;7.45;2.75;;;10.10;56.00;;;;;;5033649;28;20057;-60
2024/01/18 01:03:03;;;;;;;6.53;3.13;;;10.00;56.30;;;;;;5042780;28;20159;-61
2024/01/18 01:05:32;;;;;;;6.68;2.20;;;10.00;56.20;;;;;;5051194;28;20048;-60
2024/01/18 01:08:01;;;;;;;10.10;3.67;;;10.00;56.20;;;;;;5035907;28;20110;-69
2024/01/18 01:10:29;;;;;;;5.93;3.33;;;10.00;56.30;;;;;;5024433;28;20132;-59
2024/01/18 01:12:58;;;;;;;5.90;2.85;;;10.00;56.30;;;;;;5026993;28;20065;-61
2024/01/18 01:15:27;;;;;;;6.35;2.75;;;10.00;56.30;;;;;;5040208;28;20084;-62
2024/01/18 01:17:56;;;;;;;8.85;3.35;;;10.00;56.30;;;;;;5035052;28;20132;-59
2024/01/18 01:20:24;;;;;;;196.10;44.60;;;10.10;56.40;;;;;;5038035;28;20140;-61
2024/01/18 01:22:54;;;;;;;22.25;5.97;;;10.10;56.40;;;;;;5046992;28;20111;-62
2024/01/18 01:25:23;;;;;;;40.63;9.13;;;10.10;56.40;;;;;;5042156;28;20158;-61
2024/01/18 01:27:51;;;;;;;9.35;2.55;;;10.10;56.30;;;;;;5050514;28;20173;-61
2024/01/18 01:30:20;;;;;;;6.30;2.97;;;10.10;56.30;;;;;;5036759;28;20065;-62
2024/01/18 01:32:48;;;;;;;21.05;5.32;;;9.90;56.30;;;;;;5040102;28;20053;-60
2024/01/18 01:35:17;;;;;;;7.57;2.88;;;9.90;56.60;;;;;;5037295;28;20149;-61
2024/01/18 01:37:45;;;;;;;25.77;6.13;;;9.90;56.80;;;;;;5036307;28;20049;-64
2024/01/18 01:40:17;;;;;;;8.52;4.00;;;9.90;56.90;;;;;;5052333;28;20052;-60
2024/01/18 01:42:46;;;;;;;4.38;2.22;;;9.90;56.90;;;;;;5034510;28;20414;-61
2024/01/18 01:45:14;;;;;;;66.47;16.70;;;10.00;56.80;;;;;;5055851;28;20103;-61
2024/01/18 01:47:42;;;;;;;15.32;5.35;;;9.90;56.80;;;;;;5047420;28;20127;-61
2024/01/18 01:50:12;;;;;;;13.25;5.10;;;9.80;56.90;;;;;;5038977;28;20506;-62
2024/01/18 01:52:42;;;;;;;6.30;3.55;;;9.80;57.10;;;;;;5040473;28;20061;-64
2024/01/18 01:55:12;;;;;;;54.50;11.43;;;9.80;57.20;;;;;;5033306;28;20061;-62
2024/01/18 01:57:46;;;;;;;6.35;3.42;;;9.80;57.30;;;;;;5031822;28;20065;-62
2024/01/18 02:00:16;;;;;;;21.13;7.53;;;9.90;57.80;;;;;;5053430;28;20789;-61
2024/01/18 02:02:46;;;;;;;5.10;2.67;;;9.90;57.20;;;;;;5054701;28;20122;-62
2024/01/18 02:05:15;;;;;;;4.70;2.95;;;10.00;57.20;;;;;;5029350;28;20053;-61
2024/01/18 02:07:44;;;;;;;63.47;15.00;;;10.00;57.20;;;;;;5056219;28;20041;-61
2024/01/18 02:10:13;;;;;;;12.38;5.43;;;10.00;57.20;;;;;;5034904;28;20053;-62
2024/01/18 02:12:46;;;;;;;3.85;3.00;;;10.00;57.20;;;;;;5040909;28;20125;-63
2024/01/18 02:15:15;;;;;;;13.82;4.78;;;10.00;57.90;;;;;;5040520;28;20143;-62
2024/01/18 02:17:44;;;;;;;3.45;2.20;;;9.90;57.30;;;;;;5039549;28;20057;-62
2024/01/18 02:20:16;;;;;;;1.40;1.20;;;9.80;57.70;;;;;;5033987;28;20072;-61
2024/01/18 02:22:45;;;;;;;0.50;0.50;;;9.80;58.20;;;;;;5055257;28;20065;-62
2024/01/18 02:25:24;;;;;;;0.43;0.43;;;9.70;59.60;;;;;;5035751;28;20066;-60
2024/01/18 02:27:56;;;;;;;2.15;0.88;;;9.60;60.60;;;;;;5037487;28;20506;-63
2024/01/18 02:30:25;;;;;;;6.13;3.13;;;9.60;60.50;;;;;;5049977;28;20052;-63
2024/01/18 02:32:54;;;;;;;0.93;0.93;;;9.50;60.80;;;;;;5035417;28;20048;-63
2024/01/18 02:35:23;;;;;;;1.02;1.02;;;9.50;61.20;;;;;;5041418;28;20636;-63
2024/01/18 02:37:51;;;;;;;0.50;0.50;;;9.50;61.60;;;;;;5040850;28;20077;-60
2024/01/18 02:40:20;;;;;;;0.32;0.32;;;9.60;61.90;;;;;;5022072;28;20529;-63
2024/01/18 02:42:51;;;;;;;0.30;0.30;;;9.60;61.90;;;;;;5040095;28;20049;-63
2024/01/18 02:45:20;;;;;;;1.00;1.00;;;9.60;61.80;;;;;;5036523;28;20060;-61
2024/01/18 02:47:48;;;;;;;0.68;0.68;;;9.60;62.10;;;;;;5040435;28;20205;-62
2024/01/18 02:50:19;;;;;;;4.65;1.88;;;9.60;62.30;;;;;;5035464;28;20087;-63
2024/01/18 02:52:48;;;;;;;1.42;1.33;;;9.60;62.30;;;;;;5040011;28;20057;-62
2024/01/18 02:55:18;;;;;;;5.03;3.85;;;9.70;62.40;;;;;;5051854;28;20051;-63
2024/01/18 02:57:46;;;;;;;0.77;0.77;;;9.70;62.40;;;;;;5036460;28;20061;-63
2024/01/18 03:00:17;;;;;;;5.88;2.05;;;9.70;62.40;;;;;;5035343;28;20056;-62
2024/01/18 03:02:47;;;;;;;0.60;0.60;;;9.70;62.30;;;;;;5034816;28;20060;-65
2024/01/18 03:05:15;;;;;;;1.15;1.05;;;9.80;62.30;;;;;;5040324;28;20052;-60
2024/01/18 03:07:43;;;;;;;0.63;0.63;;;9.70;62.30;;;;;;5051928;28;20057;-61
2024/01/18 03:10:13;;;;;;;1.35;0.93;;;9.70;62.10;;;;;;5037852;28;20132;-62
2024/01/18 03:12:41;;;;;;;0.88;0.88;;;9.70;62.40;;;;;;5031861;28;20068;-62
2024/01/18 03:15:11;;;;;;;0.47;0.47;;;9.60;63.00;;;;;;5040460;28;20052;-61
2024/01/18 03:17:41;;;;;;;1.15;0.95;;;9.60;62.40;;;;;;5029826;28;20147;-63
2024/01/18 03:20:12;;;;;;;0.60;0.57;;;9.60;62.40;;;;;;5040125;28;20333;-63
2024/01/18 03:22:42;;;;;;;0.50;0.50;;;9.60;62.40;;;;;;5035795;28;20045;-62
2024/01/18 03:25:10;;;;;;;0.45;0.45;;;9.50;62.40;;;;;;5042223;28;20511;-62
2024/01/18 03:27:39;;;;;;;0.30;0.30;;;9.40;62.40;;;;;;5043311;28;20057;-62
2024/01/18 03:30:11;;;;;;;0.30;0.30;;;9.40;62.60;;;;;;5035369;28;20057;-64
2024/01/18 03:32:41;;;;;;;0.30;0.30;;;9.30;63.40;;;;;;5038544;28;20055;-60
2024/01/18 03:35:09;;;;;;;0.30;0.30;;;9.40;63.00;;;;;;5033256;28;20049;-60
2024/01/18 03:37:38;;;;;;;0.30;0.30;;;9.40;63.00;;;;;;5040107;28;20080;-60
2024/01/18 03:40:11;;;;;;;0.30;0.30;;;9.40;63.20;;;;;;5041280;28;20052;-58
2024/01/18 03:42:43;;;;;;;0.30;0.30;;;9.30;63.50;;;;;;5038723;28;20053;-60
2024/01/18 03:45:11;;;;;;;0.30;0.30;;;9.30;63.90;;;;;;5042850;28;20139;-62
2024/01/18 03:47:42;;;;;;;0.30;0.30;;;9.20;65.10;;;;;;5041410;28;20136;-60
2024/01/18 03:50:15;;;;;;;0.30;0.30;;;9.20;66.10;;;;;;5038823;28;20084;-59
2024/01/18 03:52:45;;;;;;;0.30;0.30;;;9.20;67.00;;;;;;5035457;28;20052;-59
2024/01/18 03:55:13;;;;;;;0.30;0.30;;;9.20;67.50;;;;;;5037944;28;20152;-58
2024/01/18 03:57:42;;;;;;;0.30;0.30;;;9.20;67.90;;;;;;5034379;28;21439;-60
2024/01/18 04:00:13;;;;;;;0.30;0.30;;;9.20;68.30;;;;;;5050061;28;20055;-59
2024/01/18 04:02:44;;;;;;;0.30;0.30;;;9.20;68.40;;;;;;5049319;28;20041;-60
2024/01/18 04:05:13;;;;;;;0.30;0.30;;;9.20;68.70;;;;;;5036830;28;20080;-59
2024/01/18 04:07:42;;;;;;;0.30;0.30;;;9.30;69.00;;;;;;5055620;28;20048;-60
2024/01/18 04:10:11;;;;;;;0.30;0.30;;;9.30;69.00;;;;;;5041418;28;20083;-59
2024/01/18 04:12:40;;;;;;;0.30;0.30;;;9.30;69.10;;;;;;5036638;28;20064;-59
2024/01/18 04:15:09;;;;;;;0.30;0.30;;;9.20;69.40;;;;;;5040818;28;20164;-60
2024/01/18 04:17:38;;;;;;;0.30;0.30;;;9.20;69.60;;;;;;5035131;28;20049;-59
2024/01/18 04:20:11;;;;;;;0.30;0.30;;;9.30;69.90;;;;;;5039731;28;20061;-60
2024/01/18 04:22:39;;;;;;;0.30;0.30;;;9.20;69.90;;;;;;5037848;28;20102;-59
2024/01/18 04:25:08;;;;;;;0.30;0.30;;;9.20;70.10;;;;;;5043149;28;20059;-60
2024/01/18 04:27:36;;;;;;;0.30;0.30;;;9.20;70.30;;;;;;5041790;28;20052;-60
2024/01/18 04:30:06;;;;;;;0.30;0.30;;;9.20;70.50;;;;;;5033832;28;20136;-58
2024/01/18 04:32:34;;;;;;;0.30;0.30;;;9.20;70.80;;;;;;5038880;28;20071;-59
2024/01/18 04:35:03;;;;;;;0.30;0.30;;;9.30;71.20;;;;;;5040254;28;20409;-59
2024/01/18 04:37:35;;;;;;;0.30;0.30;;;9.30;71.20;;;;;;5039873;28;20472;-59
2024/01/18 04:40:05;;;;;;;0.30;0.30;;;9.40;71.30;;;;;;5041549;28;20057;-60
2024/01/18 04:42:34;;;;;;;0.30;0.30;;;9.40;71.30;;;;;;5030991;28;20057;-60
2024/01/18 04:45:03;;;;;;;0.30;0.30;;;9.50;71.40;;;;;;5032858;28;20167;-57
2024/01/18 04:47:33;;;;;;;0.22;0.22;;;9.60;71.30;;;;;;5057702;28;20063;-59
2024/01/18 04:50:03;;;;;;;0.30;0.30;;;9.60;71.30;;;;;;5036650;28;20414;-59
2024/01/18 04:52:33;;;;;;;0.30;0.30;;;9.70;71.10;;;;;;5046445;28;20056;-60
2024/01/18 04:55:04;;;;;;;0.30;0.30;;;9.70;70.90;;;;;;5031230;28;20079;-60
2024/01/18 04:57:33;;;;;;;0.30;0.30;;;9.70;70.80;;;;;;5033933;28;20083;-59
2024/01/18 05:00:01;;;;;;;0.30;0.30;;;9.70;70.70;;;;;;5037511;28;20064;-59
2024/01/18 05:02:29;;;;;;;0.30;0.30;;;9.60;71.00;;;;;;5025493;28;20052;-61
2024/01/18 05:04:58;;;;;;;0.30;0.30;;;9.60;71.20;;;;;;5029172;28;20673;-60
2024/01/18 05:07:27;;;;;;;0.30;0.30;;;9.60;71.40;;;;;;5038279;28;20084;-60
2024/01/18 05:09:58;;;;;;;0.30;0.30;;;9.60;71.40;;;;;;5039389;28;20142;-59
2024/01/18 05:12:27;;;;;;;0.30;0.30;;;9.60;71.30;;;;;;5029267;28;20106;-59
2024/01/18 05:14:55;;;;;;;0.30;0.30;;;9.60;71.50;;;;;;5031283;28;20057;-59
2024/01/18 05:17:29;;;;;;;0.30;0.30;;;9.50;71.50;;;;;;5045030;28;20053;-57
2024/01/18 05:19:58;;;;;;;0.35;0.35;;;9.50;71.70;;;;;;5035525;28;20064;-60
2024/01/18 05:22:26;;;;;;;0.30;0.30;;;9.60;71.90;;;;;;5051991;28;20045;-60
2024/01/18 05:24:54;;;;;;;0.30;0.30;;;9.60;72.00;;;;;;5041657;28;20060;-59
2024/01/18 05:27:26;;;;;;;0.30;0.30;;;9.70;72.20;;;;;;5052880;28;20110;-59
2024/01/18 05:29:54;;;;;;;0.30;0.30;;;9.70;72.20;;;;;;5056545;28;20095;-60
2024/01/18 05:32:23;;;;;;;0.30;0.30;;;9.70;72.00;;;;;;5035356;28;20057;-57
2024/01/18 05:34:51;;;;;;;0.30;0.30;;;9.70;71.80;;;;;;5042241;28;20053;-59
2024/01/18 05:37:22;;;;;;;0.30;0.30;;;9.70;71.60;;;;;;5041258;28;20052;-57
2024/01/18 05:39:51;;;;;;;0.30;0.30;;;9.70;71.50;;;;;;5039874;28;20088;-58
2024/01/18 05:42:20;;;;;;;0.30;0.30;;;9.60;71.40;;;;;;5044736;28;20109;-59
2024/01/18 05:44:50;;;;;;;0.32;0.32;;;9.60;71.40;;;;;;5061174;28;20049;-59
2024/01/18 05:47:20;;;;;;;0.30;0.30;;;9.50;71.50;;;;;;5040275;28;20102;-59
2024/01/18 05:49:48;;;;;;;0.30;0.30;;;9.40;71.40;;;;;;5038743;28;20487;-55
2024/01/18 05:52:16;;;;;;;0.30;0.30;;;9.40;71.50;;;;;;5040137;28;20045;-60
2024/01/18 05:54:45;;;;;;;0.30;0.30;;;9.40;71.60;;;;;;5043034;28;20076;-59
2024/01/18 05:57:13;;;;;;;0.30;0.30;;;9.30;71.60;;;;;;5039726;28;20059;-59
2024/01/18 05:59:41;;;;;;;0.30;0.30;;;9.30;71.60;;;;;;5035469;28;20087;-60
2024/01/18 06:02:13;;;;;;;0.30;0.30;;;9.20;71.90;;;;;;5035291;28;20053;-59
2024/01/18 06:04:43;;;;;;;0.30;0.30;;;9.20;72.00;;;;;;5035061;28;20080;-60
2024/01/18 06:07:12;;;;;;;0.30;0.30;;;9.30;72.10;;;;;;5029240;28;20502;-57
2024/01/18 06:09:41;;;;;;;0.30;0.30;;;9.30;72.20;;;;;;5029222;28;20103;-60
2024/01/18 06:12:12;;;;;;;0.30;0.30;;;9.40;72.20;;;;;;5036184;28;20049;-56
2024/01/18 06:14:45;;;;;;;;;;;9.40;72.20;;;;;;5042256;28;20151;-59
2024/01/18 06:17:14;;;;;;;0.30;0.30;;;9.40;72.10;;;;;;5034361;28;20290;-62
2024/01/18 06:19:43;;;;;;;0.30;0.30;;;9.50;72.10;;;;;;5038155;28;20059;-61
2024/01/18 06:22:12;;;;;;;0.30;0.30;;;9.50;72.30;;;;;;5049821;28;20045;-59
2024/01/18 06:24:40;;;;;;;0.30;0.30;;;9.60;72.50;;;;;;5033205;28;20144;-61
2024/01/18 06:27:09;;;;;;;0.30;0.30;;;9.60;72.40;;;;;;5041564;28;20054;-60
2024/01/18 06:29:37;;;;;;;0.30;0.30;;;9.70;72.50;;;;;;5036429;28;20071;-60
2024/01/18 06:32:06;;;;;;;0.30;0.30;;;9.70;72.30;;;;;;5051045;28;20106;-60
2024/01/18 06:34:37;;;;;;;0.20;0.20;;;9.80;72.30;;;;;;5031086;28;21365;-61
2024/01/18 06:37:06;;;;;;;0.30;0.30;;;9.80;72.20;;;;;;5032824;28;20063;-59
2024/01/18 06:39:34;;;;;;;0.28;0.28;;;9.80;72.20;;;;;;5039159;28;20064;-59
2024/01/18 06:42:07;;;;;;;3.05;2.00;;;9.80;72.10;;;;;;5053402;28;20433;-61
2024/01/18 06:44:36;;;;;;;1.30;1.20;;;9.80;72.50;;;;;;5033110;28;20084;-62
2024/01/18 06:47:05;;;;;;;1.30;1.20;;;9.90;72.60;;;;;;5050934;28;20072;-60
2024/01/18 06:49:37;;;;;;;1.50;1.40;;;9.90;73.00;;;;;;5043492;28;20072;-61
2024/01/18 06:52:05;;;;;;;4.00;2.03;;;10.00;73.00;;;;;;5046066;28;20169;-59
2024/01/18 06:54:34;;;;;;;2.70;1.23;;;10.00;73.00;;;;;;5027946;28;20119;-60
2024/01/18 06:57:03;;;;;;;2.83;1.85;;;10.10;73.70;;;;;;5035634;28;20068;-60
2024/01/18 06:59:31;;;;;;;2.47;1.00;;;10.20;73.70;;;;;;5037954;28;20064;-61
2024/01/18 07:01:59;;;;;;;1.10;0.82;;;10.20;72.80;;;;;;5037324;28;20561;-60
2024/01/18 07:04:28;;;;;;;2.05;1.27;;;10.30;72.80;;;;;;5032267;28;20071;-59
2024/01/18 07:06:58;;;;;;;2.75;2.08;;;10.40;73.00;;;;;;5051914;28;20060;-61
2024/01/18 07:09:26;;;;;;;6.90;3.05;;;10.40;72.90;;;;;;5051954;28;20055;-62
2024/01/18 07:11:54;;;;;;;2.25;1.27;;;10.50;72.90;;;;;;5033830;28;20052;-59
2024/01/18 07:14:23;;;;;;;1.60;1.50;;;10.50;72.80;;;;;;5025709;28;20103;-60
2024/01/18 07:16:52;;;;;;;5.53;2.22;;;10.50;72.80;;;;;;5036937;28;20106;-59
2024/01/18 07:19:20;;;;;;;5.50;2.35;;;10.50;72.70;;;;;;5040494;28;20045;-60
2024/01/18 07:21:49;;;;;;;4.63;2.40;;;10.60;72.80;;;;;;5030198;28;20048;-59
2024/01/18 07:24:20;;;;;;;5.85;3.08;;;10.60;72.80;;;;;;5034199;28;20103;-60
2024/01/18 07:26:49;;;;;;;3.95;1.98;;;10.60;72.60;;;;;;5037218;28;20509;-59
2024/01/18 07:29:17;;;;;;;4.05;2.53;;;10.70;72.50;;;;;;5037227;28;20067;-60
2024/01/18 07:31:45;;;;;;;3.13;2.33;;;10.70;72.40;;;;;;5027585;28;20052;-59
2024/01/18 07:34:16;;;;;;;3.60;2.53;;;10.60;72.50;;;;;;5037080;28;20120;-60
2024/01/18 07:36:44;;;;;;;2.47;1.38;;;10.60;72.40;;;;;;5034839;28;20076;-59
2024/01/18 07:39:15;;;;;;;5.40;2.65;;;10.60;72.50;;;;;;5035879;28;20057;-59
2024/01/18 07:41:45;;;;;;;7.75;3.15;;;10.60;72.50;;;;;;5032676;28;20138;-59
2024/01/18 07:44:13;;;;;;;2.45;2.17;;;10.60;72.40;;;;;;5043031;28;20059;-59
2024/01/18 07:46:41;;;;;;;3.80;2.30;;;10.60;72.30;;;;;;5051344;28;20111;-61
2024/01/18 07:49:10;;;;;;;6.88;3.75;;;10.60;72.20;;;;;;5053971;28;20075;-59
2024/01/18 07:51:38;;;;;;;5.22;3.00;;;10.60;72.10;;;;;;5059238;28;20065;-59
2024/01/18 07:54:06;;;;;;;5.75;3.00;;;10.60;72.30;;;;;;5050796;28;20147;-59
2024/01/18 07:56:35;;;;;;;3.17;2.15;;;10.60;72.30;;;;;;5047980;28;20059;-59
2024/01/18 07:59:05;;;;;;;4.90;2.15;;;10.60;72.30;;;;;;5048989;28;20530;-59
2024/01/18 08:01:34;;;;;;;16.73;5.82;;;10.60;72.60;;;;;;5052978;28;20563;-60
2024/01/18 08:04:07;;;;;;;2.97;2.30;;;10.70;72.80;;;;;;5045250;28;20068;-59
2024/01/18 08:06:35;;;;;;;6.30;2.22;;;10.70;72.90;;;;;;5047592;28;20083;-60
2024/01/18 08:09:04;;;;;;;3.83;1.77;;;10.80;72.90;;;;;;5055961;28;20044;-59
2024/01/18 08:11:32;;;;;;;2.83;1.30;;;10.90;73.20;;;;;;5053499;28;20048;-60
2024/01/18 08:14:01;;;;;;;9.57;1.85;;;11.00;73.40;;;;;;5047443;28;20154;-61
2024/01/18 08:16:31;;;;;;;6.07;2.80;;;11.10;74.20;;;;;;5048635;28;20083;-61
2024/01/18 08:19:00;;;;;;;4.07;1.65;;;11.20;73.20;;;;;;5058260;28;20541;-59
2024/01/18 08:21:29;;;;;;;8.60;2.55;;;11.30;73.20;;;;;;5054708;28;20056;-58
2024/01/18 08:23:57;;;;;;;4.90;2.33;;;11.30;72.70;;;;;;5051252;28;20068;-60
2024/01/18 08:26:25;;;;;;;4.25;1.80;;;11.30;72.60;;;;;;5051717;28;20052;-59
2024/01/18 08:28:53;;;;;;;2.72;1.85;;;11.40;72.50;;;;;;5052464;28;20118;-60
2024/01/18 08:31:21;;;;;;;5.05;3.20;;;11.40;72.50;;;;;;5057285;28;20057;-59
2024/01/18 08:33:51;;;;;;;7.97;2.13;;;11.40;72.50;;;;;;5047360;28;20060;-58
2024/01/18 08:36:19;;;;;;;5.28;2.78;;;11.50;72.70;;;;;;5046549;28;20049;-59
2024/01/18 08:38:48;;;;;;;5.90;2.63;;;11.60;72.60;;;;;;5052684;28;20052;-60
2024/01/18 08:41:17;;;;;;;3.65;1.92;;;11.60;72.50;;;;;;5054946;28;20044;-61
2024/01/18 08:43:45;;;;;;;5.18;2.15;;;11.70;72.50;;;;;;5034943;28;20052;-59
2024/01/18 08:46:14;;;;;;;3.78;1.88;;;11.80;72.60;;;;;;5028498;28;20387;-60
2024/01/18 08:48:44;;;;;;;4.75;1.60;;;11.80;73.40;;;;;;5038331;28;20545;-60
2024/01/18 08:51:13;;;;;;;1.00;0.80;;;11.90;72.70;;;;;;5033231;28;20136;-61
2024/01/18 08:53:42;;;;;;;1.70;1.13;;;12.00;72.80;;;;;;5033161;28;20049;-58
2024/01/18 08:56:12;;;;;;;6.50;1.60;;;12.10;73.00;;;;;;5037803;28;20060;-64
2024/01/18 08:58:41;;;;;;;2.13;1.00;;;12.20;73.00;;;;;;5041969;28;20057;-56
2024/01/18 09:01:09;;;;;;;4.80;1.75;;;12.20;73.00;;;;;;5038168;28;20056;-60
2024/01/18 09:03:38;;;;;;;1.55;1.27;;;12.30;73.40;;;;;;5035419;28;20783;-60
2024/01/18 09:06:06;;;;;;;1.73;1.27;;;12.60;73.50;;;;;;5037897;28;20060;-62
2024/01/18 09:08:36;;;;;;;1.42;0.93;;;12.50;72.70;;;;;;5031055;28;20052;-60
2024/01/18 09:11:05;;;;;;;1.33;1.17;;;12.60;72.70;;;;;;5037209;28;20130;-61
2024/01/18 09:13:33;;;;;;;1.45;0.70;;;12.70;72.80;;;;;;5033383;28;20061;-60
2024/01/18 09:16:01;;;;;;;2.00;0.82;;;12.80;73.10;;;;;;5034651;28;20057;-59
2024/01/18 09:18:29;;;;;;;5.95;2.28;;;13.00;72.70;;;;;;5030763;28;20061;-59
2024/01/18 09:20:58;;;;;;;7.88;2.33;;;13.00;72.20;;;;;;5036502;28;20144;-60
2024/01/18 09:23:27;;;;;;;2.50;1.65;;;13.00;71.90;;;;;;5038935;28;20067;-60
2024/01/18 09:25:57;;;;;;;3.47;1.65;;;13.00;71.80;;;;;;5032499;28;20057;-60
2024/01/18 09:28:25;;;;;;;1.42;1.00;;;13.10;71.70;;;;;;5048527;28;20052;-60
2024/01/18 09:30:54;;;;;;;1.75;1.25;;;13.10;71.70;;;;;;5038915;28;20076;-61
2024/01/18 09:33:22;;;;;;;4.10;1.77;;;13.10;71.60;;;;;;5034391;28;20063;-59
2024/01/18 09:35:51;;;;;;;4.65;2.05;;;13.20;71.80;;;;;;5031484;28;20103;-60
2024/01/18 09:38:21;;;;;;;3.55;1.75;;;13.20;71.70;;;;;;5028994;28;20076;-60
2024/01/18 09:40:50;;;;;;;5.95;1.67;;;13.40;72.40;;;;;;5048648;28;20045;-59
2024/01/18 09:43:21;;;;;;;9.52;2.50;;;13.50;72.10;;;;;;5032611;28;20076;-61
2024/01/18 09:45:51;;;;;;;5.75;2.60;;;13.70;72.10;;;;;;5035557;28;20075;-62
2024/01/18 09:48:20;;;;;;;11.13;2.88;;;14.00;72.40;;;;;;5046196;28;20045;-60
2024/01/18 09:50:49;;;;;;;6.30;2.20;;;14.30;72.10;;;;;;5057695;28;20114;-57
2024/01/18 09:53:17;;;;;;;13.07;3.72;;;14.40;71.30;;;;;;5033416;28;21048;-61
2024/01/18 09:55:48;;;;;;;9.27;3.20;;;14.40;70.70;;;;;;5033709;28;20049;-62
2024/01/18 09:58:17;;;;;;;6.25;2.28;;;14.40;70.40;;;;;;5030381;28;20593;-60
2024/01/18 10:00:54;;;;;;;3.15;1.67;;;14.40;70.50;;;;;;5037733;28;20057;-60
2024/01/18 10:03:23;;;;;;;9.38;2.45;;;14.40;70.00;;;;;;5033086;28;20052;-59
2024/01/18 10:05:51;;;;;;;8.38;2.95;;;14.30;69.80;;;;;;5034554;28;20041;-61
2024/01/18 10:08:20;;;;;;;8.73;2.90;;;14.20;69.90;;;;;;5028437;28;20053;-60
2024/01/18 10:10:48;;;;;;;12.95;3.67;;;14.20;70.10;;;;;;5034458;28;20485;-61
2024/01/18 10:13:17;;;;;;;8.45;2.58;;;14.30;70.20;;;;;;5034956;28;20513;-59
2024/01/18 10:15:45;;;;;;;2.05;1.40;;;14.30;70.00;;;;;;5035802;28;20076;-60
2024/01/18 10:18:16;;;;;;;4.72;1.30;;;14.30;69.80;;;;;;5032915;28;20061;-59
2024/01/18 10:20:47;;;;;;;1.25;0.73;;;14.20;69.80;;;;;;5032652;28;20064;-60
2024/01/18 10:23:16;;;;;;;3.40;1.58;;;14.10;69.90;;;;;;5047890;28;20487;-60
2024/01/18 10:25:46;;;;;;;5.07;1.73;;;14.10;69.80;;;;;;5030866;28;20106;-62
2024/01/18 10:28:16;;;;;;;18.85;1.98;;;14.10;70.00;;;;;;5031278;28;20060;-59
2024/01/18 10:30:45;;;;;;;8.40;3.38;;;14.10;70.00;;;;;;5035187;28;20503;-61
2024/01/18 10:33:13;;;;;;;4.13;1.75;;;14.10;69.90;;;;;;5037343;28;20060;-60
2024/01/18 10:35:45;;;;;;;5.35;2.75;;;14.10;69.40;;;;;;5031110;28;20049;-60
2024/01/18 10:38:14;;;;;;;9.50;3.47;;;14.00;69.30;;;;;;5039171;28;20057;-57
2024/01/18 10:40:50;;;;;;;6.28;1.80;;;14.00;69.30;;;;;;5034967;28;20057;-61
2024/01/18 10:43:18;;;;;;;;;;;14.00;69.40;;;;;;5061062;28;20071;-62
2024/01/18 10:45:47;;;;;;;1.40;1.30;;;14.00;69.70;;;;;;5050270;28;19974;-62
2024/01/18 10:48:16;;;;;;;3.58;2.35;;;14.00;69.70;;;;;;5066356;28;20071;-61
2024/01/18 10:50:47;;;;;;;6.13;1.20;;;14.00;70.00;;;;;;5056006;28;20488;-61
2024/01/18 10:53:16;;;;;;;7.85;2.42;;;14.10;70.40;;;;;;5049713;28;20059;-61
2024/01/18 10:55:44;;;;;;;5.13;2.50;;;14.40;70.80;;;;;;5052699;28;20140;-63
2024/01/18 10:58:13;;;;;;;4.20;2.50;;;14.60;70.50;;;;;;5065905;28;20130;-63
2024/01/18 11:00:41;;;;;;;4.80;2.10;;;14.70;69.80;;;;;;5057594;28;20395;-60
2024/01/18 11:03:11;;;;;;;6.47;2.80;;;14.80;69.60;;;;;;5050442;28;20068;-62
2024/01/18 11:05:41;;;;;;;3.65;1.85;;;14.80;69.40;;;;;;5048526;28;20056;-62
2024/01/18 11:08:11;;;;;;;3.38;2.17;;;14.80;69.20;;;;;;5066022;28;20037;-62
2024/01/18 11:10:41;;;;;;;4.35;3.13;;;14.80;69.00;;;;;;5069699;28;20049;-62
2024/01/18 11:13:10;;;;;;;10.18;3.40;;;14.70;68.50;;;;;;5067996;28;20151;-63
2024/01/18 11:15:41;;;;;;;6.30;2.75;;;14.60;68.40;;;;;;5052982;28;20064;-63
2024/01/18 11:18:11;;;;;;;6.97;2.72;;;14.50;68.30;;;;;;5054579;28;21477;-62
2024/01/18 11:21:04;;;;;;;6.40;2.38;;;14.40;68.30;;;;;;5062699;28;20049;-62
2024/01/18 11:23:37;;;;;;;5.75;2.15;;;14.20;68.10;;;;;;5039464;28;20060;-60
2024/01/18 11:26:07;;;;;;;5.78;2.30;;;14.00;68.50;;;;;;5048206;28;20079;-63
2024/01/18 11:28:36;;;;;;;4.53;2.42;;;13.90;68.80;;;;;;5043037;28;21132;-63
2024/01/18 11:31:05;;;;;;;20.60;1.98;;;13.90;69.10;;;;;;5051157;28;20615;-64
2024/01/18 11:33:34;;;;;;;4.05;1.65;;;13.80;68.90;;;;;;5055147;28;20470;-62
2024/01/18 11:36:02;;;;;;;5.45;2.28;;;13.70;69.20;;;;;;5054343;28;20146;-58
2024/01/18 11:38:32;;;;;;;7.93;3.00;;;13.60;69.20;;;;;;5059512;28;20148;-61
2024/01/18 11:41:19;;;;;;;9.70;3.38;;;13.60;69.70;;;;;;5072496;28;20441;-61
2024/01/18 11:43:54;;;;;;;8.20;2.72;;;13.60;69.90;;;;;;5056025;28;20833;-64
2024/01/18 11:46:38;;;;;;;5.60;2.40;;;13.70;70.10;;;;;;5048923;28;20076;-63
2024/01/18 11:49:07;;;;;;;10.25;3.60;;;13.80;70.40;;;;;;5054206;28;20049;-63
2024/01/18 11:51:37;;;;;;;10.07;3.53;;;13.90;70.80;;;;;;5054882;28;20056;-62
2024/01/18 11:54:06;;;;;;;14.50;3.75;;;14.20;70.80;;;;;;5060620;28;20091;-62
2024/01/18 11:56:37;;;;;;;32.67;7.35;;;14.60;70.70;;;;;;5049264;28;20056;-63
2024/01/18 11:59:06;;;;;;;11.43;4.88;;;14.80;70.10;;;;;;5068584;28;20052;-62
2024/01/18 12:01:34;;;;;;;11.68;4.72;;;14.90;69.80;;;;;;5049741;28;20060;-62
2024/01/18 12:04:03;;;;;;;12.88;5.28;;;15.10;69.60;;;;;;5068041;28;20067;-62
2024/01/18 12:06:32;;;;;;;10.20;4.00;;;15.20;70.40;;;;;;5058376;28;20595;-62
2024/01/18 12:09:01;;;;;;;12.02;3.95;;;15.40;69.70;;;;;;5058891;28;20053;-63
2024/01/18 12:11:29;;;;;;;5.25;2.05;;;15.50;69.70;;;;;;5060610;28;20052;-64
2024/01/18 12:13:59;;;;;;;6.72;3.17;;;15.70;69.50;;;;;;5053199;28;20057;-61
2024/01/18 12:16:31;;;;;;;3.60;2.17;;;15.80;69.10;;;;;;5054412;28;20470;-62
2024/01/18 12:19:00;;;;;;;11.73;4.90;;;15.90;68.50;;;;;;5060770;28;20565;-68
2024/01/18 12:21:29;;;;;;;7.82;2.47;;;15.90;68.20;;;;;;5053090;28;20056;-63
2024/01/18 12:23:58;;;;;;;9.23;3.92;;;15.80;68.00;;;;;;5073040;28;20102;-62
2024/01/18 12:26:26;;;;;;;7.40;3.20;;;15.80;68.00;;;;;;5069665;28;20113;-63
2024/01/18 12:28:55;;;;;;;4.40;2.55;;;15.80;68.00;;;;;;5066019;28;20063;-59
2024/01/18 12:31:24;;;;;;;11.50;2.97;;;15.70;67.80;;;;;;5063928;28;20057;-62
2024/01/18 12:33:54;;;;;;;5.97;1.55;;;15.70;67.80;;;;;;5058599;28;20131;-62
2024/01/18 12:36:23;;;;;;;5.18;2.35;;;15.70;67.80;;;;;;5051075;28;20068;-62
2024/01/18 12:38:51;;;;;;;3.30;1.75;;;15.70;67.80;;;;;;5061075;28;20059;-62
2024/01/18 12:41:21;;;;;;;7.57;3.03;;;15.70;67.50;;;;;;5060172;28;20064;-63
2024/01/18 12:43:50;;;;;;;6.40;2.13;;;15.60;67.20;;;;;;5046431;28;20045;-63
2024/01/18 12:46:19;;;;;;;6.25;1.95;;;15.50;67.10;;;;;;5024900;28;20064;-65
2024/01/18 12:48:49;;;;;;;4.30;1.27;;;15.50;67.20;;;;;;5050001;28;20056;-63
2024/01/18 12:51:19;;;;;;;2.72;1.48;;;15.40;67.20;;;;;;5034715;28;20079;-63
2024/01/18 12:53:49;;;;;;;3.05;1.95;;;15.40;67.30;;;;;;5036514;28;20056;-64
2024/01/18 12:56:17;;;;;;;3.45;1.75;;;15.40;67.40;;;;;;5029490;28;20057;-64
2024/01/18 12:58:46;;;;;;;6.18;1.85;;;15.50;67.50;;;;;;5035674;28;20473;-64
2024/01/18 13:01:26;;;;;;;8.93;2.05;;;15.50;68.50;;;;;;5031185;28;20068;-63